Time;durP1;ratioP1;P1;durP2;ratioP2;P2;SDS_P1;SDS_P2;PMS_P1;PMS_P2;Temp;Humidity;BMP_temperature;BMP_pressure;BME280_temperature;BME280_humidity;BME280_pressure;Samples;Min_cycle;Max_cycle;Signal;HPM_P1;HPM_P2
2022/06/26 00:03:17;;;;;;;7.20;3.50;;;26.90;53.60;;;;;;220619;1267;25296;-49
2022/06/26 00:08:19;;;;;;;4.60;3.40;;;26.90;53.60;;;;;;220694;1268;22685;-51
2022/06/26 00:13:22;;;;;;;7.80;3.70;;;26.90;53.60;;;;;;220689;1267;22586;-51
2022/06/26 00:18:24;;;;;;;6.80;3.50;;;26.90;53.60;;;;;;220803;1268;24292;-50
2022/06/26 00:23:26;;;;;;;6.20;3.10;;;26.90;53.60;;;;;;221011;1268;24754;-50
2022/06/26 00:28:29;;;;;;;6.60;3.50;;;26.90;53.60;;;;;;220703;1268;24208;-49
2022/06/26 00:33:32;;;;;;;6.80;4.00;;;26.90;53.60;;;;;;221111;1268;25541;-49
2022/06/26 00:38:52;;;;;;;9.40;3.90;;;26.90;54.00;;;;;;220885;1268;24227;-54
2022/06/26 00:43:55;;;;;;;4.80;3.00;;;26.90;54.30;;;;;;220993;1268;22545;-49
2022/06/26 00:48:57;;;;;;;4.70;3.20;;;26.90;53.70;;;;;;221006;1268;24269;-48
2022/06/26 00:53:59;;;;;;;7.50;3.90;;;26.90;53.70;;;;;;220657;1268;23599;-51
2022/06/26 00:59:04;;;;;;;5.20;3.30;;;26.90;53.70;;;;;;220541;1268;22717;-52
2022/06/26 01:04:07;;;;;;;4.50;3.50;;;26.90;53.70;;;;;;220858;1268;22552;-56
2022/06/26 01:09:15;;;;;;;8.80;3.50;;;26.90;53.70;;;;;;220448;1268;22539;-47
2022/06/26 01:14:20;;;;;;;10.90;3.70;;;26.80;53.70;;;;;;220810;1267;24218;-50
2022/06/26 01:19:24;;;;;;;6.20;3.50;;;26.80;53.70;;;;;;220434;1268;289734;-46
2022/06/26 01:24:26;;;;;;;4.10;3.30;;;26.80;53.70;;;;;;220675;1268;24277;-48
2022/06/26 01:29:29;;;;;;;3.50;3.10;;;26.80;53.70;;;;;;220630;1268;25366;-49
2022/06/26 01:34:33;;;;;;;5.50;3.30;;;26.80;53.70;;;;;;220679;1268;22540;-51
2022/06/26 01:39:38;;;;;;;3.80;3.20;;;26.80;53.70;;;;;;221040;1268;22539;-48
2022/06/26 01:44:40;;;;;;;8.40;3.70;;;26.80;53.80;;;;;;220594;1268;22547;-47
2022/06/26 01:49:44;;;;;;;5.20;3.40;;;26.80;53.70;;;;;;220556;1268;24245;-51
2022/06/26 01:54:47;;;;;;;6.10;3.60;;;26.70;53.70;;;;;;220542;1268;22544;-49
2022/06/26 01:59:49;;;;;;;4.10;2.90;;;26.80;53.80;;;;;;220948;1268;24268;-48
2022/06/26 02:04:54;;;;;;;4.20;3.00;;;26.80;53.70;;;;;;220991;1268;23122;-46
2022/06/26 02:15:23;;;;;;;3.40;3.10;;;26.70;53.70;;;;;;220943;1268;22685;-50
2022/06/26 02:20:26;;;;;;;6.20;3.80;;;26.70;53.70;;;;;;220518;1267;24300;-49
2022/06/26 02:25:29;;;;;;;3.50;3.20;;;26.70;53.70;;;;;;220835;1268;22839;-49
2022/06/26 02:30:32;;;;;;;5.20;3.30;;;26.70;53.60;;;;;;220664;1268;24214;-47
2022/06/26 02:35:35;;;;;;;4.50;3.50;;;26.70;53.70;;;;;;220623;1268;25210;-48
2022/06/26 02:40:38;;;;;;;4.80;3.80;;;26.70;53.60;;;;;;220749;1268;24725;-49
2022/06/26 02:45:56;;;;;;;4.40;3.30;;;26.70;53.60;;;;;;221031;1268;25139;-50
2022/06/26 02:50:59;;;;;;;4.80;3.60;;;26.70;54.00;;;;;;220794;1268;24414;-50
2022/06/26 02:56:01;;;;;;;8.10;4.00;;;26.70;53.60;;;;;;220783;1268;22547;-49
2022/06/26 03:01:04;;;;;;;5.00;3.50;;;26.70;53.50;;;;;;220610;1268;23951;-47
2022/06/26 03:06:06;;;;;;;8.10;3.70;;;26.70;53.80;;;;;;220559;1268;25324;-52
2022/06/26 03:11:10;;;;;;;4.30;3.10;;;26.60;53.50;;;;;;220865;1268;24211;-48
2022/06/26 03:16:13;;;;;;;4.20;3.30;;;26.70;53.50;;;;;;220513;1268;24857;-48
2022/06/26 03:21:16;;;;;;;3.70;3.00;;;26.70;53.50;;;;;;220687;1268;24216;-54
2022/06/26 03:26:21;;;;;;;6.60;4.00;;;26.60;53.50;;;;;;220649;1268;22580;-49
2022/06/26 03:31:27;;;;;;;3.70;3.20;;;26.60;53.50;;;;;;220895;1268;22565;-50
2022/06/26 03:36:30;;;;;;;4.40;3.30;;;26.60;53.50;;;;;;221049;1268;24726;-47
2022/06/26 03:41:33;;;;;;;5.40;3.60;;;26.60;53.40;;;;;;220744;1268;24234;-50
2022/06/26 03:46:35;;;;;;;4.80;3.40;;;26.60;53.50;;;;;;220958;1268;24211;-49
2022/06/26 03:51:38;;;;;;;3.70;3.30;;;26.60;53.40;;;;;;220712;1268;24208;-50
2022/06/26 03:56:41;;;;;;;6.70;3.70;;;26.60;53.40;;;;;;221096;1268;24342;-47
2022/06/26 04:01:45;;;;;;;5.10;3.50;;;26.60;53.30;;;;;;220988;1268;22553;-49
2022/06/26 04:07:01;;;;;;;3.80;3.00;;;26.60;53.20;;;;;;220576;1267;22537;-49
2022/06/26 04:12:11;;;;;;;3.50;3.00;;;26.60;53.20;;;;;;221018;1268;24318;-50
2022/06/26 04:17:17;;;;;;;5.90;3.40;;;26.60;53.20;;;;;;220973;1268;23041;-48
2022/06/26 04:23:00;;;;;;;4.20;3.00;;;26.60;53.20;;;;;;220798;1268;22609;-48
2022/06/26 04:28:05;;;;;;;6.90;3.80;;;26.60;53.20;;;;;;220480;1268;26592;-51
2022/06/26 04:33:10;;;;;;;5.40;3.50;;;26.60;52.80;;;;;;220625;1268;22683;-48
2022/06/26 04:38:13;;;;;;;4.70;3.30;;;26.60;53.30;;;;;;221132;1268;25298;-49
2022/06/26 04:43:17;;;;;;;4.50;3.50;;;26.60;53.50;;;;;;221066;1270;25232;-53
2022/06/26 04:48:21;;;;;;;5.90;3.50;;;26.60;53.20;;;;;;220827;1268;23061;-48
2022/06/26 04:53:23;;;;;;;5.00;3.50;;;26.60;53.20;;;;;;220811;1268;24308;-47
2022/06/26 04:58:26;;;;;;;9.50;4.00;;;26.60;53.20;;;;;;220436;1268;22687;-52
2022/06/26 05:03:31;;;;;;;4.90;3.00;;;26.60;53.10;;;;;;220967;1268;22537;-50
2022/06/26 05:09:01;;;;;;;5.50;3.30;;;26.60;53.20;;;;;;221037;1269;25309;-49
2022/06/26 05:14:04;;;;;;;4.50;3.40;;;26.60;53.20;;;;;;220521;1268;25256;-51
2022/06/26 05:19:39;;;;;;;7.60;3.80;;;26.60;53.30;;;;;;220787;1268;25420;-49
2022/06/26 05:24:44;;;;;;;4.30;3.30;;;26.60;52.80;;;;;;220667;1268;24256;-46
2022/06/26 05:29:51;;;;;;;5.00;4.00;;;26.60;53.30;;;;;;220882;1268;22699;-49
2022/06/26 05:34:53;;;;;;;6.90;3.70;;;26.60;53.20;;;;;;220526;1268;25343;-50
2022/06/26 05:39:56;;;;;;;4.20;3.40;;;26.70;53.20;;;;;;220909;1268;24234;-52
2022/06/26 05:44:58;;;;;;;5.30;3.50;;;26.70;53.20;;;;;;220797;1268;24215;-48
2022/06/26 05:50:07;;;;;;;3.90;2.90;;;26.70;53.20;;;;;;220972;1268;22547;-49
2022/06/26 05:55:32;;;;;;;7.40;3.80;;;26.70;53.20;;;;;;220904;1268;22810;-51
2022/06/26 06:00:56;;;;;;;6.30;3.80;;;26.70;53.20;;;;;;220780;1268;22564;-49
2022/06/26 06:05:58;;;;;;;15.40;4.50;;;26.70;53.20;;;;;;220595;1268;22697;-48
2022/06/26 06:11:33;;;;;;;3.90;3.10;;;26.70;53.10;;;;;;220776;1268;24461;-49
2022/06/26 06:16:35;;;;;;;3.80;3.40;;;26.70;53.10;;;;;;220950;1268;22553;-50
2022/06/26 06:22:00;;;;;;;6.00;3.60;;;26.80;53.20;;;;;;220396;1270;22739;-52
2022/06/26 06:27:10;;;;;;;4.60;3.70;;;26.80;53.20;;;;;;221018;1268;24375;-53
2022/06/26 06:32:15;;;;;;;5.00;3.30;;;26.80;53.10;;;;;;220719;1268;22707;-49
2022/06/26 06:37:34;;;;;;;4.40;3.50;;;26.80;53.00;;;;;;220178;1267;23902;-50
2022/06/26 06:42:43;;;;;;;5.00;3.50;;;26.80;53.30;;;;;;220791;1268;22639;-50
2022/06/26 06:48:08;;;;;;;5.50;3.60;;;26.80;53.00;;;;;;220527;1268;24189;-52
2022/06/26 06:53:37;;;;;;;9.10;4.20;;;26.80;53.00;;;;;;220656;1268;22547;-49
2022/06/26 06:58:40;;;;;;;7.20;3.70;;;26.80;52.90;;;;;;220784;1268;24344;-50
2022/06/26 07:03:47;;;;;;;3.70;3.20;;;26.90;53.00;;;;;;220466;1268;25325;-50
2022/06/26 07:08:53;;;;;;;6.60;3.90;;;26.90;53.00;;;;;;220581;1268;24212;-49
2022/06/26 07:14:04;;;;;;;10.40;4.30;;;26.90;53.30;;;;;;220329;1267;22556;-51
2022/06/26 07:19:14;;;;;;;15.50;4.70;;;26.90;53.00;;;;;;220575;1268;22662;-52
2022/06/26 07:24:21;;;;;;;;;;;26.90;52.90;;;;;;220402;1268;25382;-50
2022/06/26 07:29:47;;;;;;;4.80;3.50;;;26.90;52.90;;;;;;220786;1270;22576;-50
2022/06/26 07:34:55;;;;;;;8.20;4.00;;;26.90;52.90;;;;;;220743;1270;22685;-54
2022/06/26 07:40:07;;;;;;;3.90;3.50;;;26.90;52.90;;;;;;220696;1270;25486;-48
2022/06/26 07:45:10;;;;;;;3.60;3.10;;;26.90;53.10;;;;;;220855;1269;22687;-52
2022/06/26 07:50:32;;;;;;;3.80;3.20;;;26.90;52.80;;;;;;220275;1268;24210;-50
2022/06/26 07:55:35;;;;;;;5.20;3.50;;;27.00;52.90;;;;;;221119;1269;24394;-53
2022/06/26 08:00:43;;;;;;;5.80;3.60;;;27.00;53.20;;;;;;220754;1268;24290;-48
2022/06/26 08:05:46;;;;;;;10.00;4.20;;;27.00;52.90;;;;;;220767;1269;24352;-53
2022/06/26 08:10:49;;;;;;;7.90;3.90;;;27.00;52.80;;;;;;220610;1268;24037;-47
2022/06/26 08:15:52;;;;;;;3.20;2.80;;;27.00;53.10;;;;;;220562;1268;24736;-52
2022/06/26 08:20:55;;;;;;;5.40;3.70;;;27.00;52.80;;;;;;220584;1268;25369;-51
2022/06/26 08:25:57;;;;;;;6.00;3.60;;;27.10;52.80;;;;;;220727;1269;22703;-51
2022/06/26 08:31:01;;;;;;;5.90;3.50;;;27.10;52.80;;;;;;220637;1270;24272;-53
2022/06/26 08:36:05;;;;;;;3.80;3.40;;;27.10;52.80;;;;;;220864;1268;25537;-50
2022/06/26 08:41:09;;;;;;;4.30;3.70;;;27.10;52.80;;;;;;220659;1268;25079;-49
2022/06/26 08:46:13;;;;;;;4.70;3.80;;;27.20;53.10;;;;;;220728;1268;22554;-48
2022/06/26 08:51:16;;;;;;;4.10;3.70;;;27.20;52.80;;;;;;220752;1270;24117;-52
2022/06/26 08:56:19;;;;;;;5.80;3.80;;;27.20;53.10;;;;;;220900;1268;22678;-47
2022/06/26 09:01:21;;;;;;;6.00;3.50;;;27.20;52.70;;;;;;221004;1268;22835;-54
2022/06/26 09:06:24;;;;;;;4.70;3.60;;;27.20;52.70;;;;;;219991;1269;23015;-48
2022/06/26 09:11:26;;;;;;;5.30;3.90;;;27.20;52.70;;;;;;220450;1268;22562;-49
2022/06/26 09:16:31;;;;;;;6.80;3.70;;;27.30;52.70;;;;;;220444;1268;22575;-52
2022/06/26 09:21:33;;;;;;;7.50;4.30;;;27.30;52.70;;;;;;220546;1270;25371;-51
2022/06/26 09:26:37;;;;;;;13.90;4.90;;;27.40;52.80;;;;;;220460;1269;23921;-50
2022/06/26 09:31:40;;;;;;;9.20;4.30;;;27.40;53.30;;;;;;220664;1268;22580;-50
2022/06/26 09:36:54;;;;;;;6.20;4.60;;;27.60;52.70;;;;;;220785;1268;24315;-50
2022/06/26 09:42:02;;;;;;;9.00;5.00;;;27.90;50.80;;;;;;220524;1267;23902;-52
2022/06/26 09:47:20;;;;;;;6.70;4.50;;;27.80;50.10;;;;;;220768;1268;22704;-48
2022/06/26 09:52:27;;;;;;;12.80;4.60;;;26.70;50.40;;;;;;220620;1268;22834;-50
2022/06/26 09:57:31;;;;;;;14.50;5.10;;;26.20;50.70;;;;;;220683;1269;25032;-50
2022/06/26 10:08:04;;;;;;;9.10;5.10;;;26.30;50.90;;;;;;220713;1268;22550;-51
2022/06/26 10:13:08;;;;;;;12.70;5.00;;;26.30;53.10;;;;;;220724;1268;25440;-54
2022/06/26 10:18:32;;;;;;;13.70;5.20;;;26.30;55.20;;;;;;220823;1268;23906;-51
2022/06/26 10:23:40;;;;;;;9.80;5.10;;;26.30;57.00;;;;;;220834;1269;24243;-50
2022/06/26 10:28:56;;;;;;;13.00;4.80;;;26.20;57.20;;;;;;220908;1269;24306;-50
2022/06/26 10:34:10;;;;;;;12.00;5.20;;;26.20;56.30;;;;;;220624;1268;22579;-48
2022/06/26 10:39:13;;;;;;;11.40;5.10;;;26.20;55.30;;;;;;220767;1268;24259;-47
2022/06/26 10:44:18;;;;;;;12.80;4.90;;;26.20;55.50;;;;;;220892;1268;22541;-54
2022/06/26 10:49:34;;;;;;;10.70;5.30;;;26.30;56.00;;;;;;220714;1268;25254;-47
2022/06/26 10:54:37;;;;;;;11.60;5.80;;;26.30;57.50;;;;;;220534;1268;24249;-50
2022/06/26 10:59:41;;;;;;;10.80;5.70;;;26.30;58.20;;;;;;220877;1268;23581;-52
2022/06/26 11:04:48;;;;;;;13.70;5.20;;;26.20;58.20;;;;;;220622;1268;22639;-52
2022/06/26 11:09:56;;;;;;;17.30;5.70;;;26.20;57.30;;;;;;220543;1268;22570;-47
2022/06/26 11:14:58;;;;;;;13.00;5.90;;;26.30;56.10;;;;;;220743;1268;24299;-48
2022/06/26 11:25:24;;;;;;;17.10;6.00;;;26.50;57.80;;;;;;220514;1268;26501;-47
2022/06/26 11:30:26;;;;;;;20.10;7.30;;;26.30;59.50;;;;;;220663;1268;25544;-46
2022/06/26 11:35:29;;;;;;;22.80;7.30;;;26.20;61.10;;;;;;220585;1268;24282;-51
2022/06/26 11:40:31;;;;;;;16.10;6.60;;;26.10;60.60;;;;;;220574;1268;22538;-47
2022/06/26 11:45:35;;;;;;;17.10;5.80;;;26.20;58.00;;;;;;220671;1268;22613;-51
2022/06/26 11:50:39;;;;;;;17.90;6.80;;;26.20;59.40;;;;;;220426;1267;22592;-44
2022/06/26 11:55:49;;;;;;;15.30;6.20;;;26.20;60.80;;;;;;220825;1268;22727;-48
2022/06/26 12:01:12;;;;;;;22.70;7.40;;;26.10;60.10;;;;;;220530;1266;24192;-48
2022/06/26 12:06:29;;;;;;;23.10;7.50;;;26.20;59.20;;;;;;220563;1268;22580;-48
2022/06/26 12:11:43;;;;;;;16.00;6.30;;;26.20;59.80;;;;;;220459;1268;22591;-48
2022/06/26 12:16:47;;;;;;;13.10;6.20;;;26.20;60.00;;;;;;220134;1268;22544;-49
2022/06/26 12:21:52;;;;;;;15.50;7.10;;;26.30;61.80;;;;;;220702;1268;24209;-45
2022/06/26 12:27:00;;;;;;;22.10;7.10;;;26.20;61.50;;;;;;220603;1268;22977;-48
2022/06/26 12:32:08;;;;;;;18.40;6.50;;;26.10;60.30;;;;;;220585;1268;22563;-48
2022/06/26 12:37:11;;;;;;;16.00;6.60;;;26.10;58.30;;;;;;220469;1267;25413;-46
2022/06/26 12:42:16;;;;;;;17.50;6.70;;;26.20;58.30;;;;;;220996;1268;22557;-45
2022/06/26 12:47:18;;;;;;;11.20;5.90;;;26.20;59.50;;;;;;220856;1265;22661;-47
2022/06/26 12:52:20;;;;;;;16.50;6.00;;;26.20;61.10;;;;;;220704;1265;25418;-49
2022/06/26 12:57:23;;;;;;;10.90;5.70;;;26.10;61.10;;;;;;220868;1268;24243;-47
2022/06/26 13:02:26;;;;;;;13.20;6.20;;;26.00;59.90;;;;;;220611;1267;22835;-50
2022/06/26 13:07:28;;;;;;;13.20;6.00;;;26.00;57.90;;;;;;220436;1268;24300;-50
2022/06/26 13:12:32;;;;;;;11.00;5.30;;;26.10;57.70;;;;;;220701;1265;23150;-52
2022/06/26 13:17:34;;;;;;;12.50;6.20;;;26.10;58.50;;;;;;220467;1268;22652;-48
2022/06/26 13:22:37;;;;;;;11.30;5.30;;;26.10;60.60;;;;;;220788;1268;312403;-47
2022/06/26 13:27:40;;;;;;;13.40;6.20;;;26.00;60.60;;;;;;221058;1268;22549;-47
2022/06/26 13:32:43;;;;;;;8.20;5.10;;;26.00;60.00;;;;;;220642;1268;22622;-48
2022/06/26 13:37:45;;;;;;;17.30;5.60;;;26.00;57.90;;;;;;220757;1268;25480;-46
2022/06/26 13:42:47;;;;;;;9.80;4.80;;;26.10;58.10;;;;;;220597;1268;24420;-47
2022/06/26 13:47:50;;;;;;;19.10;5.20;;;26.10;59.00;;;;;;220890;1268;25366;-49
2022/06/26 13:52:52;;;;;;;10.20;4.90;;;26.20;60.90;;;;;;220360;1268;22707;-46
2022/06/26 13:57:57;;;;;;;11.20;5.10;;;26.10;60.60;;;;;;220657;1267;22567;-49
2022/06/26 14:03:00;;;;;;;11.00;4.90;;;26.10;59.90;;;;;;220322;1265;22574;-47
2022/06/26 14:08:05;;;;;;;8.40;4.50;;;26.00;57.60;;;;;;220534;1268;22533;-46
2022/06/26 14:13:13;;;;;;;13.70;5.30;;;26.10;57.80;;;;;;220571;1265;24215;-47
2022/06/26 14:18:15;;;;;;;12.00;4.50;;;26.20;58.40;;;;;;220790;1268;25471;-46
2022/06/26 14:28:38;;;;;;;13.60;5.30;;;26.60;58.80;;;;;;220608;1268;22605;-47
2022/06/26 14:33:41;;;;;;;11.20;5.40;;;26.90;58.00;;;;;;220365;1265;25334;-50
2022/06/26 14:38:44;;;;;;;16.40;6.60;;;27.20;57.50;;;;;;221068;1268;22553;-49
2022/06/26 14:43:56;;;;;;;16.60;5.90;;;27.40;56.80;;;;;;221050;1268;22684;-50
2022/06/26 14:48:58;;;;;;;11.70;5.60;;;27.50;56.20;;;;;;220376;1268;23057;-49
2022/06/26 14:54:00;;;;;;;11.70;5.60;;;27.60;56.10;;;;;;220359;1268;26603;-49
2022/06/26 14:59:04;;;;;;;13.40;5.70;;;27.70;56.70;;;;;;221153;1265;25404;-47
2022/06/26 15:04:07;;;;;;;13.10;6.50;;;27.70;57.80;;;;;;221029;1268;24285;-47
2022/06/26 15:09:09;;;;;;;14.40;6.50;;;27.80;59.00;;;;;;220507;1268;25354;-50
2022/06/26 15:14:12;;;;;;;11.10;5.60;;;27.90;58.60;;;;;;220575;1265;24768;-49
2022/06/26 15:19:16;;;;;;;12.00;5.70;;;27.90;58.60;;;;;;220494;1268;22698;-46
2022/06/26 15:24:20;;;;;;;11.40;6.00;;;28.00;58.70;;;;;;220427;1265;22564;-50
2022/06/26 15:29:26;;;;;;;10.20;5.90;;;28.00;58.60;;;;;;220781;1265;25366;-48
2022/06/26 15:34:48;;;;;;;8.80;5.70;;;28.00;58.40;;;;;;220493;1267;24359;-53
2022/06/26 15:39:59;;;;;;;10.00;5.20;;;28.00;58.30;;;;;;220669;1268;23155;-49
2022/06/26 15:45:03;;;;;;;8.90;5.10;;;28.00;58.30;;;;;;221051;1265;22641;-48
2022/06/26 15:50:07;;;;;;;8.40;5.50;;;28.10;57.60;;;;;;220860;1268;24236;-48
2022/06/26 15:55:09;;;;;;;10.90;5.80;;;28.00;57.70;;;;;;220501;1268;24218;-47
2022/06/26 16:00:22;;;;;;;8.90;4.70;;;28.00;57.90;;;;;;220168;1268;22544;-47
2022/06/26 16:05:27;;;;;;;10.60;5.50;;;28.00;57.80;;;;;;220165;1268;24231;-51
2022/06/26 16:10:33;;;;;;;10.80;5.00;;;28.00;57.70;;;;;;221091;1268;25359;-48
2022/06/26 16:15:40;;;;;;;10.90;4.60;;;28.00;58.00;;;;;;220472;1268;22601;-48
2022/06/26 16:20:45;;;;;;;8.90;4.70;;;28.00;57.70;;;;;;220734;1268;22598;-46
2022/06/26 16:31:34;;;;;;;9.70;5.00;;;28.00;57.60;;;;;;220280;1268;24692;-50
2022/06/26 16:36:42;;;;;;;7.50;5.00;;;28.00;57.50;;;;;;220403;1268;22558;-49
2022/06/26 16:41:47;;;;;;;8.70;5.20;;;28.00;57.10;;;;;;220471;1268;24265;-50
2022/06/26 16:46:51;;;;;;;9.60;5.40;;;28.00;57.30;;;;;;220749;1268;22562;-51
2022/06/26 16:51:54;;;;;;;12.80;5.70;;;28.00;57.30;;;;;;220452;1265;27660;-47
2022/06/26 16:57:00;;;;;;;10.30;5.70;;;28.10;58.70;;;;;;220302;1268;23912;-49
2022/06/26 17:02:06;;;;;;;9.20;5.40;;;28.10;59.20;;;;;;220436;1267;25450;-48
2022/06/26 17:07:17;;;;;;;12.30;5.60;;;28.10;59.30;;;;;;220473;1265;22681;-46
2022/06/26 17:12:25;;;;;;;18.20;6.20;;;28.20;59.10;;;;;;220222;1267;24349;-50
2022/06/26 17:17:31;;;;;;;10.00;5.20;;;28.20;59.40;;;;;;220156;1267;24929;-48
2022/06/26 17:22:36;;;;;;;14.30;5.80;;;28.10;58.00;;;;;;221305;1268;22632;-47
2022/06/26 17:27:43;;;;;;;14.90;5.60;;;27.40;57.00;;;;;;220476;1268;22691;-49
2022/06/26 17:32:46;;;;;;;14.40;5.20;;;26.90;55.60;;;;;;220454;1268;24365;-49
2022/06/26 17:37:53;;;;;;;16.40;5.20;;;26.60;54.40;;;;;;220162;1268;25250;-47
2022/06/26 17:42:57;;;;;;;11.60;5.00;;;26.50;54.20;;;;;;220554;1265;22671;-50
2022/06/26 17:48:02;;;;;;;9.10;4.30;;;26.40;52.30;;;;;;220290;1267;24229;-50
2022/06/26 17:53:10;;;;;;;7.00;4.30;;;26.20;51.00;;;;;;220355;1267;25248;-48
2022/06/26 17:58:18;;;;;;;11.10;4.80;;;26.20;50.10;;;;;;220253;1268;23919;-48
2022/06/26 18:03:22;;;;;;;7.70;4.80;;;26.00;49.00;;;;;;220473;1265;22620;-46
2022/06/26 18:08:24;;;;;;;7.50;4.30;;;26.00;48.20;;;;;;220345;1265;24203;-46
2022/06/26 18:13:27;;;;;;;11.00;4.10;;;25.90;47.70;;;;;;220156;1268;22689;-48
2022/06/26 18:18:31;;;;;;;10.40;3.90;;;25.90;50.90;;;;;;220407;1265;24780;-48
2022/06/26 18:23:34;;;;;;;10.90;4.00;;;25.90;48.90;;;;;;220572;1265;22547;-48
2022/06/26 18:28:36;;;;;;;8.30;4.50;;;25.80;51.30;;;;;;220494;1268;22557;-46
2022/06/26 18:33:39;;;;;;;10.60;4.50;;;25.80;49.20;;;;;;220756;1267;24220;-52
2022/06/26 18:38:41;;;;;;;5.80;3.80;;;25.80;50.50;;;;;;220741;1266;22567;-48
2022/06/26 18:43:43;;;;;;;7.90;4.30;;;25.70;53.00;;;;;;220868;1268;22521;-48
2022/06/26 18:48:46;;;;;;;6.20;4.10;;;25.70;50.40;;;;;;220749;1268;23578;-47
2022/06/26 18:53:56;;;;;;;6.30;4.00;;;25.70;51.40;;;;;;220909;1268;25257;-47
2022/06/26 18:58:59;;;;;;;7.70;3.50;;;25.70;53.80;;;;;;220288;1268;24295;-46
2022/06/26 19:04:04;;;;;;;14.60;4.00;;;25.60;52.20;;;;;;220828;1268;22542;-49
2022/06/26 19:09:08;;;;;;;9.70;5.10;;;25.60;52.70;;;;;;220681;1265;22538;-53
2022/06/26 19:19:34;;;;;;;11.20;4.50;;;25.50;56.40;;;;;;220547;1268;22561;-51
2022/06/26 19:24:38;;;;;;;8.60;3.90;;;25.50;56.30;;;;;;220281;1265;22554;-55
2022/06/26 19:29:40;;;;;;;12.20;4.30;;;25.50;55.60;;;;;;220437;1266;22541;-49
2022/06/26 19:34:45;;;;;;;9.60;3.70;;;25.50;54.10;;;;;;220478;1265;25458;-49
2022/06/26 19:39:47;;;;;;;17.10;4.40;;;25.40;54.10;;;;;;220596;1268;22618;-54
2022/06/26 19:44:51;;;;;;;12.90;4.10;;;25.50;54.60;;;;;;220736;1268;22528;-48
2022/06/26 19:55:21;;;;;;;10.30;3.80;;;25.40;57.70;;;;;;220712;1268;22757;-48
2022/06/26 20:00:28;;;;;;;7.30;3.60;;;25.40;57.90;;;;;;220516;1268;22694;-52
2022/06/26 20:05:34;;;;;;;5.10;3.90;;;25.30;56.60;;;;;;219912;1267;25326;-52
2022/06/26 20:10:36;;;;;;;5.80;3.60;;;25.30;55.40;;;;;;220081;1267;22565;-47
2022/06/26 20:15:39;;;;;;;7.90;3.10;;;25.30;55.50;;;;;;220197;1268;24710;-50
2022/06/26 20:20:42;;;;;;;5.50;3.30;;;25.30;55.50;;;;;;220329;1265;22544;-49
2022/06/26 20:25:44;;;;;;;5.80;3.40;;;25.30;56.50;;;;;;220636;1268;22541;-48
2022/06/26 20:30:48;;;;;;;5.20;3.40;;;25.70;55.50;;;;;;220328;1268;25256;-48
2022/06/26 20:35:51;;;;;;;9.10;4.00;;;26.00;55.00;;;;;;220223;1265;24232;-53
2022/06/26 20:41:02;;;;;;;7.50;3.70;;;26.10;54.50;;;;;;220472;1265;22834;-52
2022/06/26 20:46:10;;;;;;;5.80;3.30;;;26.20;54.70;;;;;;220259;1267;22539;-54
2022/06/26 20:51:16;;;;;;;9.80;4.00;;;26.30;54.60;;;;;;220691;1268;25300;-49
2022/06/26 20:56:21;;;;;;;6.70;4.10;;;26.40;56.00;;;;;;220319;1267;25260;-51
2022/06/26 21:01:23;;;;;;;7.20;4.40;;;26.50;56.90;;;;;;220336;1268;23588;-52
2022/06/26 21:06:27;;;;;;;9.30;4.00;;;26.50;56.00;;;;;;220210;1265;22551;-49
2022/06/26 21:11:29;;;;;;;13.40;4.90;;;26.40;56.00;;;;;;220592;1268;24300;-53
2022/06/26 21:16:33;;;;;;;10.50;3.90;;;26.50;55.80;;;;;;220559;1268;22727;-49
2022/06/26 21:21:36;;;;;;;5.50;3.50;;;26.50;55.80;;;;;;220324;1268;22788;-49
2022/06/26 21:26:40;;;;;;;6.50;3.80;;;26.50;56.10;;;;;;220638;1268;22543;-50
2022/06/26 21:31:43;;;;;;;10.10;4.40;;;26.50;55.70;;;;;;220623;1267;24300;-48
2022/06/26 21:36:56;;;;;;;5.40;4.00;;;26.60;55.80;;;;;;220766;1268;24221;-52
2022/06/26 21:42:08;;;;;;;6.80;3.90;;;26.60;56.30;;;;;;220534;1268;25370;-50
2022/06/26 21:47:11;;;;;;;9.60;3.70;;;26.60;55.90;;;;;;220396;1268;25531;-48
2022/06/26 21:52:13;;;;;;;6.30;3.80;;;26.60;58.70;;;;;;220486;1267;22710;-51
2022/06/26 21:57:15;;;;;;;8.50;3.90;;;26.70;57.40;;;;;;220785;1268;22990;-49
2022/06/26 22:02:23;;;;;;;5.00;3.70;;;26.70;58.20;;;;;;220117;1267;24228;-46
2022/06/26 22:07:27;;;;;;;8.40;4.50;;;26.70;57.40;;;;;;220437;1265;22682;-50
2022/06/26 22:12:29;;;;;;;9.40;4.10;;;26.70;57.40;;;;;;220126;1267;22550;-50
2022/06/26 22:17:32;;;;;;;6.30;4.10;;;26.80;57.70;;;;;;220321;1265;22556;-52
2022/06/26 22:22:36;;;;;;;6.60;4.00;;;26.80;57.60;;;;;;220418;1266;22575;-49
2022/06/26 22:27:54;;;;;;;5.30;3.90;;;26.80;57.70;;;;;;220096;1267;22558;-48
2022/06/26 22:32:59;;;;;;;4.40;3.30;;;26.80;57.60;;;;;;220375;1268;22862;-51
2022/06/26 22:38:01;;;;;;;4.60;3.80;;;26.80;57.60;;;;;;220378;1266;24225;-48
2022/06/26 22:43:04;;;;;;;8.00;3.80;;;26.90;57.60;;;;;;220212;1268;22619;-49
2022/06/26 22:48:07;;;;;;;5.80;3.30;;;26.90;57.60;;;;;;219922;1268;24974;-50
2022/06/26 22:53:10;;;;;;;5.50;3.90;;;26.90;57.60;;;;;;223150;1268;22601;-48
2022/06/26 22:58:12;;;;;;;5.60;3.50;;;26.90;57.70;;;;;;219893;1267;22566;-49
2022/06/26 23:03:15;;;;;;;6.20;4.10;;;26.90;57.80;;;;;;221237;1266;22735;-49
2022/06/26 23:08:18;;;;;;;5.20;3.60;;;26.90;57.70;;;;;;220070;1265;22701;-48
2022/06/26 23:13:20;;;;;;;6.10;4.00;;;26.90;57.80;;;;;;220414;1268;25584;-51
2022/06/26 23:18:23;;;;;;;6.20;3.90;;;26.90;57.20;;;;;;220485;1265;24362;-51
2022/06/26 23:23:25;;;;;;;4.80;3.70;;;26.90;58.00;;;;;;220328;1265;22559;-49
2022/06/26 23:28:31;;;;;;;5.50;3.80;;;26.90;58.20;;;;;;220455;1265;24256;-49
2022/06/26 23:33:33;;;;;;;4.80;3.50;;;26.90;58.10;;;;;;220442;1268;24195;-49
2022/06/26 23:38:36;;;;;;;7.00;4.10;;;26.90;57.90;;;;;;220455;1268;23124;-48
2022/06/26 23:43:38;;;;;;;5.90;3.50;;;26.90;57.80;;;;;;220445;1268;22559;-50
2022/06/26 23:48:40;;;;;;;4.90;4.10;;;26.80;57.90;;;;;;220264;1268;22676;-51
2022/06/26 23:53:43;;;;;;;7.20;4.10;;;26.80;57.50;;;;;;220643;1268;22696;-50
2022/06/26 23:58:45;;;;;;;5.80;4.40;;;26.80;57.40;;;;;;220554;1268;24215;-51
